Time;durP1;ratioP1;P1;durP2;ratioP2;P2;SDS_P1;SDS_P2;PMS_P1;PMS_P2;Temp;Humidity;BMP_temperature;BMP_pressure;BME280_temperature;BME280_humidity;BME280_pressure;Samples;Min_cycle;Max_cycle;Signal;HPM_P1;HPM_P2
2021/11/03 00:01:46;;;;;;;23.77;17.33;;;8.10;98.30;;;;;;5174411;23;21177;-83
2021/11/03 00:03:51;;;;;;;27.23;21.00;;;8.10;98.30;;;;;;5174211;23;21206;-84
2021/11/03 00:05:54;;;;;;;23.83;19.63;;;8.10;98.30;;;;;;5174260;23;20424;-84
2021/11/03 00:07:58;;;;;;;22.03;15.60;;;8.10;98.30;;;;;;5174064;23;20787;-84
2021/11/03 00:10:04;;;;;;;23.30;17.47;;;8.00;98.30;;;;;;5174407;23;20814;-84
2021/11/03 00:12:11;;;;;;;22.17;18.53;;;8.00;98.30;;;;;;5174155;23;20425;-84
2021/11/03 00:14:14;;;;;;;23.90;16.10;;;8.00;98.30;;;;;;5174674;23;20507;-84
2021/11/03 00:16:17;;;;;;;21.80;17.30;;;8.00;98.30;;;;;;5174616;23;20420;-84
2021/11/03 00:18:20;;;;;;;20.33;17.67;;;7.90;98.30;;;;;;5174202;23;20429;-84
2021/11/03 00:20:23;;;;;;;27.10;20.43;;;7.80;98.30;;;;;;5174305;23;20548;-84
2021/11/03 00:22:26;;;;;;;22.53;18.13;;;7.80;98.30;;;;;;5174035;23;20457;-84
2021/11/03 00:24:29;;;;;;;27.40;21.53;;;7.80;98.30;;;;;;5174128;23;20495;-84
2021/11/03 00:26:32;;;;;;;25.30;18.13;;;7.80;98.30;;;;;;5166206;23;20908;-84
2021/11/03 00:28:36;;;;;;;27.30;21.37;;;7.80;98.30;;;;;;5174129;23;20430;-84
2021/11/03 00:30:40;;;;;;;26.47;20.37;;;7.80;98.30;;;;;;5174575;23;20426;-84
2021/11/03 00:32:44;;;;;;;32.83;20.60;;;7.70;98.30;;;;;;5174209;23;20794;-83
2021/11/03 00:34:47;;;;;;;27.23;19.00;;;7.70;98.30;;;;;;5174488;23;20508;-84
2021/11/03 00:36:50;;;;;;;26.87;21.30;;;7.80;98.30;;;;;;5174874;23;20747;-85
2021/11/03 00:38:52;;;;;;;28.60;22.30;;;7.80;98.30;;;;;;5174630;23;20436;-84
2021/11/03 00:40:56;;;;;;;26.73;21.83;;;7.90;98.30;;;;;;5175347;23;20446;-84
2021/11/03 00:42:59;;;;;;;32.97;22.37;;;7.90;98.30;;;;;;5174933;23;20517;-84
2021/11/03 00:45:03;;;;;;;25.30;20.37;;;7.80;98.30;;;;;;5174780;23;20495;-84
2021/11/03 00:47:07;;;;;;;28.13;21.70;;;7.80;98.30;;;;;;5173805;23;20410;-84
2021/11/03 00:49:09;;;;;;;27.57;18.73;;;7.70;98.30;;;;;;5174556;23;20917;-84
2021/11/03 00:51:13;;;;;;;27.77;20.37;;;7.70;98.30;;;;;;5174633;23;20820;-84
2021/11/03 00:53:16;;;;;;;27.10;21.63;;;7.70;98.30;;;;;;5174615;23;20444;-84
2021/11/03 00:55:19;;;;;;;28.60;21.83;;;7.70;98.30;;;;;;5176750;23;20800;-83
2021/11/03 00:57:22;;;;;;;25.13;19.60;;;7.70;98.30;;;;;;5175953;23;20434;-83
2021/11/03 00:59:25;;;;;;;24.93;20.60;;;7.60;98.30;;;;;;5176142;23;20947;-83
2021/11/03 01:01:30;;;;;;;25.13;21.17;;;7.60;98.30;;;;;;5175959;23;20441;-83
2021/11/03 01:03:33;;;;;;;25.30;19.00;;;7.60;98.30;;;;;;5175944;23;20939;-84
2021/11/03 01:05:38;;;;;;;28.13;20.20;;;7.60;98.30;;;;;;5167844;23;20515;-84
2021/11/03 01:07:41;;;;;;;23.30;20.80;;;7.60;98.30;;;;;;5175454;23;20420;-84
2021/11/03 01:09:44;;;;;;;26.50;19.50;;;7.60;98.30;;;;;;5175890;23;20420;-83
2021/11/03 01:11:48;;;;;;;25.97;19.70;;;7.60;98.30;;;;;;5175571;23;20402;-84
2021/11/03 01:13:51;;;;;;;25.40;19.57;;;7.60;98.30;;;;;;5175648;23;20446;-84
2021/11/03 01:15:57;;;;;;;20.47;18.23;;;7.60;98.30;;;;;;5176170;23;20428;-84
2021/11/03 01:18:02;;;;;;;24.47;18.20;;;7.60;98.30;;;;;;5176009;23;20420;-84
2021/11/03 01:20:06;;;;;;;23.90;18.17;;;7.50;98.30;;;;;;5167164;23;20805;-84
2021/11/03 01:22:09;;;;;;;24.10;18.67;;;7.50;98.30;;;;;;5167365;23;20525;-83
2021/11/03 01:24:37;;;;;;;25.37;18.10;;;7.50;98.30;;;;;;5175202;23;20740;-84
2021/11/03 01:26:41;;;;;;;24.33;18.50;;;7.60;98.30;;;;;;5175373;23;20434;-83
2021/11/03 01:28:45;;;;;;;22.20;18.83;;;7.60;98.30;;;;;;5166824;23;20434;-84
2021/11/03 01:30:48;;;;;;;22.17;17.67;;;7.60;98.30;;;;;;5175311;23;20435;-83
2021/11/03 01:32:52;;;;;;;24.63;19.30;;;7.60;98.30;;;;;;5175221;23;20431;-83
2021/11/03 01:34:56;;;;;;;27.93;20.10;;;7.60;98.30;;;;;;5166967;23;20430;-84
2021/11/03 01:36:59;;;;;;;27.33;19.47;;;7.60;98.30;;;;;;5167108;23;20430;-84
2021/11/03 01:39:03;;;;;;;23.00;18.47;;;7.60;98.30;;;;;;5175472;23;20530;-84
2021/11/03 01:41:07;;;;;;;25.20;17.57;;;7.50;98.30;;;;;;5175678;23;20753;-84
2021/11/03 01:43:15;;;;;;;21.33;17.83;;;7.50;98.30;;;;;;5175620;23;20439;-84
2021/11/03 01:45:23;;;;;;;29.27;20.47;;;7.50;98.30;;;;;;5176116;23;20373;-84
2021/11/03 01:47:45;;;;;;;23.87;19.47;;;7.50;98.30;;;;;;5166916;23;20512;-84
2021/11/03 01:49:48;;;;;;;23.93;19.50;;;7.40;98.30;;;;;;5174855;23;20430;-83
2021/11/03 01:51:57;;;;;;;22.13;17.97;;;7.50;98.30;;;;;;5175226;23;20427;-83
2021/11/03 01:54:02;;;;;;;25.63;17.90;;;7.50;98.30;;;;;;5174901;23;20440;-85
2021/11/03 01:56:08;;;;;;;29.63;20.87;;;7.50;98.30;;;;;;5175329;23;20395;-84
2021/11/03 01:58:15;;;;;;;21.70;18.60;;;7.50;98.30;;;;;;5166116;23;20418;-84
2021/11/03 02:00:22;;;;;;;23.33;19.13;;;7.50;98.30;;;;;;5175222;23;20426;-84
2021/11/03 02:02:26;;;;;;;21.13;18.30;;;7.40;98.30;;;;;;5174896;23;20450;-84
2021/11/03 02:04:31;;;;;;;22.73;18.90;;;7.40;98.30;;;;;;5175125;23;20483;-84
2021/11/03 02:06:35;;;;;;;33.17;20.83;;;7.40;98.30;;;;;;5174992;23;20421;-84
2021/11/03 02:08:43;;;;;;;23.47;19.17;;;7.50;98.30;;;;;;5166293;23;20432;-84
2021/11/03 02:10:46;;;;;;;27.50;20.13;;;7.50;98.30;;;;;;5166545;23;20414;-84
2021/11/03 02:12:49;;;;;;;23.10;17.80;;;7.50;98.30;;;;;;5175167;23;20441;-84
2021/11/03 02:14:52;;;;;;;22.83;19.77;;;7.40;98.30;;;;;;5175054;23;20953;-84
2021/11/03 02:16:55;;;;;;;23.20;19.07;;;7.50;98.30;;;;;;5175071;23;20509;-84
2021/11/03 02:18:58;;;;;;;25.13;18.70;;;7.40;98.30;;;;;;5175197;23;20730;-84
2021/11/03 02:21:32;;;;;;;27.00;19.40;;;7.40;98.30;;;;;;5166797;23;20473;-84
2021/11/03 02:23:43;;;;;;;23.73;17.27;;;7.40;98.30;;;;;;5175852;23;20960;-84
2021/11/03 02:26:16;;;;;;;22.10;19.47;;;7.40;98.30;;;;;;5167064;23;20398;-84
2021/11/03 02:28:21;;;;;;;25.23;18.77;;;7.50;98.30;;;;;;5174798;23;20425;-83
2021/11/03 02:30:26;;;;;;;23.80;18.20;;;7.50;98.30;;;;;;5174711;23;20427;-84
2021/11/03 02:32:32;;;;;;;22.87;20.10;;;7.50;98.30;;;;;;5175067;23;20450;-83
2021/11/03 02:34:35;;;;;;;21.73;16.37;;;7.60;98.30;;;;;;5167359;23;20390;-84
2021/11/03 02:36:51;;;;;;;22.93;19.10;;;7.60;98.30;;;;;;5175046;23;20481;-84
2021/11/03 02:38:54;;;;;;;24.17;17.50;;;7.60;98.30;;;;;;5166713;23;20879;-84
2021/11/03 02:41:03;;;;;;;21.50;17.90;;;7.60;98.30;;;;;;5175468;23;20917;-83
2021/11/03 02:43:12;;;;;;;23.47;18.30;;;7.60;98.30;;;;;;5174232;23;20979;-83
2021/11/03 02:45:19;;;;;;;22.90;16.50;;;7.60;98.30;;;;;;5166553;23;20395;-84
2021/11/03 02:47:25;;;;;;;23.97;16.57;;;7.70;98.30;;;;;;5174403;23;20422;-83
2021/11/03 02:49:28;;;;;;;24.87;19.60;;;7.70;98.30;;;;;;5174260;23;20747;-83
2021/11/03 02:51:35;;;;;;;22.33;16.43;;;7.70;98.30;;;;;;5174718;23;20399;-83
2021/11/03 02:53:41;;;;;;;23.43;17.73;;;7.70;98.30;;;;;;5174273;23;20438;-84
2021/11/03 02:55:44;;;;;;;20.10;15.87;;;7.70;98.30;;;;;;5174911;23;20916;-84
2021/11/03 02:57:47;;;;;;;21.27;16.63;;;7.70;98.30;;;;;;5174755;23;20431;-84
2021/11/03 02:59:52;;;;;;;21.50;14.23;;;7.60;98.30;;;;;;5174916;23;20745;-84
2021/11/03 03:01:56;;;;;;;22.57;15.37;;;7.60;98.30;;;;;;5174741;23;21066;-83
2021/11/03 03:04:00;;;;;;;18.40;14.73;;;7.60;98.30;;;;;;5174710;23;20527;-84
2021/11/03 03:06:10;;;;;;;21.13;14.90;;;7.60;98.30;;;;;;5174862;23;20503;-85
2021/11/03 03:10:26;;;;;;;20.70;17.37;;;7.80;98.30;;;;;;5179824;22;20446;-80
2021/11/03 03:12:32;;;;;;;19.80;14.10;;;7.90;98.30;;;;;;5199098;22;20422;-80
2021/11/03 03:14:38;;;;;;;21.07;13.33;;;7.80;98.30;;;;;;5199692;22;20420;-80
2021/11/03 03:16:43;;;;;;;21.30;14.77;;;7.70;98.30;;;;;;5200022;22;20419;-80
2021/11/03 03:18:46;;;;;;;19.20;16.07;;;7.60;98.30;;;;;;5191839;22;20962;-80
2021/11/03 03:20:49;;;;;;;16.93;12.63;;;7.60;98.30;;;;;;5200809;22;20419;-80
2021/11/03 03:23:12;;;;;;;21.30;15.73;;;7.70;98.30;;;;;;5199256;22;20427;-83
2021/11/03 03:25:16;;;;;;;33.33;20.73;;;7.70;98.30;;;;;;5202518;22;20431;-80
2021/11/03 03:27:20;;;;;;;21.63;16.80;;;7.80;98.30;;;;;;5200863;22;20421;-79
2021/11/03 03:29:23;;;;;;;21.03;15.87;;;7.80;98.30;;;;;;5192495;22;20430;-82
2021/11/03 03:31:27;;;;;;;20.83;16.00;;;7.70;98.30;;;;;;5192190;22;20497;-80
2021/11/03 03:33:32;;;;;;;19.70;15.83;;;7.70;98.30;;;;;;5201883;22;20493;-82
2021/11/03 03:35:35;;;;;;;19.20;16.20;;;7.60;98.30;;;;;;5194536;22;20423;-82
2021/11/03 03:37:38;;;;;;;22.93;15.00;;;7.60;98.30;;;;;;5201936;22;20518;-83
2021/11/03 03:39:41;;;;;;;24.33;16.60;;;7.60;98.30;;;;;;5202772;22;20523;-83
2021/11/03 03:41:49;;;;;;;16.17;13.00;;;7.60;98.30;;;;;;5203265;22;20401;-83
2021/11/03 03:43:52;;;;;;;20.03;16.50;;;7.60;98.30;;;;;;5204343;22;20410;-82
2021/11/03 03:45:56;;;;;;;21.73;15.30;;;7.60;98.30;;;;;;5204888;22;20766;-82
2021/11/03 03:47:59;;;;;;;20.57;15.70;;;7.50;98.30;;;;;;5204559;22;20469;-82
2021/11/03 03:50:05;;;;;;;22.23;15.80;;;7.60;98.30;;;;;;5195511;22;20923;-82
2021/11/03 03:52:09;;;;;;;21.77;16.43;;;7.60;98.30;;;;;;5203982;22;20811;-82
2021/11/03 03:54:12;;;;;;;18.90;14.90;;;7.70;98.30;;;;;;5203941;22;20433;-82
2021/11/03 03:56:17;;;;;;;19.27;15.70;;;7.60;98.30;;;;;;5195410;22;20463;-82
2021/11/03 03:58:20;;;;;;;22.20;16.17;;;7.70;98.30;;;;;;5202136;22;20523;-83
2021/11/03 04:00:24;;;;;;;20.07;15.43;;;7.60;98.30;;;;;;5202589;22;20737;-83
2021/11/03 04:02:27;;;;;;;21.10;16.07;;;7.60;98.30;;;;;;5204275;22;20462;-82
2021/11/03 04:04:31;;;;;;;22.80;16.40;;;7.60;98.30;;;;;;5205558;22;20400;-82
2021/11/03 04:06:35;;;;;;;19.70;16.83;;;7.50;98.30;;;;;;5202983;22;20433;-82
2021/11/03 04:08:38;;;;;;;19.03;15.90;;;7.50;98.30;;;;;;5203351;22;20443;-82
2021/11/03 04:10:43;;;;;;;22.17;14.90;;;7.60;98.30;;;;;;5203360;22;20455;-83
2021/11/03 04:12:47;;;;;;;22.13;17.40;;;7.70;98.30;;;;;;5203241;22;20397;-83
2021/11/03 04:14:49;;;;;;;20.27;16.90;;;7.60;98.30;;;;;;5202590;22;20426;-83
2021/11/03 04:16:53;;;;;;;18.73;13.47;;;7.70;98.30;;;;;;5202253;22;21086;-82
2021/11/03 04:18:56;;;;;;;24.90;16.47;;;7.70;98.30;;;;;;5199408;22;20452;-83
2021/11/03 04:20:59;;;;;;;20.60;14.87;;;7.70;98.30;;;;;;5201468;22;20445;-82
2021/11/03 04:23:04;;;;;;;23.10;16.13;;;7.50;98.30;;;;;;5200267;22;20424;-82
2021/11/03 04:25:09;;;;;;;20.23;16.90;;;7.50;98.30;;;;;;5199728;22;20510;-82
2021/11/03 04:27:12;;;;;;;24.53;16.90;;;7.50;98.30;;;;;;5200278;22;20491;-83
2021/11/03 04:29:18;;;;;;;20.83;16.47;;;7.50;98.30;;;;;;5206957;22;20443;-82
2021/11/03 04:31:22;;;;;;;23.10;17.27;;;7.50;98.30;;;;;;5201459;22;20400;-82
2021/11/03 04:33:27;;;;;;;25.90;18.03;;;7.50;98.30;;;;;;5200458;22;20477;-83
2021/11/03 04:35:30;;;;;;;19.70;16.33;;;7.50;98.30;;;;;;5193620;22;20506;-82
2021/11/03 04:37:33;;;;;;;23.00;17.10;;;7.50;98.30;;;;;;5201690;22;20456;-82
2021/11/03 04:39:38;;;;;;;18.20;15.80;;;7.50;98.30;;;;;;5202005;22;20521;-83
2021/11/03 04:41:41;;;;;;;24.93;17.73;;;7.50;98.30;;;;;;5193701;22;20721;-83
2021/11/03 04:43:46;;;;;;;20.53;17.50;;;7.50;98.30;;;;;;5202416;22;20929;-82
2021/11/03 04:45:49;;;;;;;22.60;17.40;;;7.40;98.30;;;;;;5203032;22;20420;-82
2021/11/03 04:47:52;;;;;;;25.10;18.40;;;7.40;98.30;;;;;;5201787;22;20918;-84
2021/11/03 04:49:57;;;;;;;23.13;17.37;;;7.50;98.30;;;;;;5201740;22;20519;-82
2021/11/03 04:52:00;;;;;;;18.60;15.90;;;7.50;98.30;;;;;;5201714;22;20425;-83
2021/11/03 04:54:06;;;;;;;23.00;17.00;;;7.40;98.30;;;;;;5202042;22;20444;-82
2021/11/03 04:56:12;;;;;;;21.63;16.87;;;7.40;98.30;;;;;;5202453;22;20424;-82
2021/11/03 04:58:16;;;;;;;19.50;16.03;;;7.40;98.30;;;;;;5201591;22;20738;-83
2021/11/03 05:00:24;;;;;;;22.07;16.50;;;7.40;98.30;;;;;;5201854;22;20422;-83
2021/11/03 05:02:27;;;;;;;22.70;14.87;;;7.40;98.30;;;;;;5201987;22;20389;-83
2021/11/03 05:04:30;;;;;;;20.27;16.90;;;7.40;98.30;;;;;;5201707;22;20418;-82
2021/11/03 05:06:37;;;;;;;20.97;18.10;;;7.50;98.30;;;;;;5202903;22;20804;-83
2021/11/03 05:08:40;;;;;;;19.47;17.37;;;7.40;98.30;;;;;;5201561;22;20492;-82
2021/11/03 05:10:44;;;;;;;18.23;16.27;;;7.50;98.30;;;;;;5203652;22;20507;-82
2021/11/03 05:12:48;;;;;;;19.43;16.60;;;7.50;98.30;;;;;;5203931;22;20430;-82
2021/11/03 05:14:51;;;;;;;21.13;16.47;;;7.50;98.30;;;;;;5204876;22;20508;-83
2021/11/03 05:16:54;;;;;;;21.13;16.77;;;7.40;98.30;;;;;;5195702;22;20488;-82
2021/11/03 05:18:57;;;;;;;21.00;16.87;;;7.40;98.30;;;;;;5204429;22;20439;-82
2021/11/03 05:21:01;;;;;;;21.30;17.60;;;7.40;98.30;;;;;;5204415;22;20419;-82
2021/11/03 05:23:04;;;;;;;22.10;16.50;;;7.40;98.30;;;;;;5203976;22;20428;-83
2021/11/03 05:25:08;;;;;;;19.10;16.53;;;7.40;98.30;;;;;;5204736;22;20449;-83
2021/11/03 05:27:12;;;;;;;22.00;16.17;;;7.40;98.30;;;;;;5204054;22;20495;-83
2021/11/03 05:29:19;;;;;;;20.77;15.97;;;7.40;98.30;;;;;;5205097;22;20464;-82
2021/11/03 05:31:23;;;;;;;18.07;16.00;;;7.40;98.30;;;;;;5206245;22;20410;-82
2021/11/03 05:33:28;;;;;;;17.93;14.30;;;7.40;98.30;;;;;;5209551;22;20452;-85
2021/11/03 05:35:31;;;;;;;26.23;17.40;;;7.40;98.30;;;;;;5202287;22;20911;-82
2021/11/03 05:37:34;;;;;;;19.27;16.10;;;7.40;98.30;;;;;;5201796;22;20423;-82
2021/11/03 05:39:37;;;;;;;16.47;14.57;;;7.40;98.30;;;;;;5201552;22;20450;-82
2021/11/03 05:41:40;;;;;;;20.80;14.30;;;7.40;98.30;;;;;;5203762;22;20394;-82
2021/11/03 05:43:43;;;;;;;21.60;16.57;;;7.40;98.30;;;;;;5195343;22;20979;-81
2021/11/03 05:45:48;;;;;;;18.73;15.40;;;7.40;98.30;;;;;;5202914;22;20426;-82
2021/11/03 05:47:51;;;;;;;20.37;16.23;;;7.40;98.30;;;;;;5202443;22;20742;-83
2021/11/03 05:49:56;;;;;;;16.90;14.60;;;7.40;98.30;;;;;;5201817;22;20514;-82
2021/11/03 05:52:01;;;;;;;20.40;14.63;;;7.40;98.30;;;;;;5202498;22;20425;-83
2021/11/03 05:54:05;;;;;;;21.20;14.87;;;7.30;98.30;;;;;;5194501;22;20433;-82
2021/11/03 05:56:09;;;;;;;18.43;15.17;;;7.40;98.30;;;;;;5194930;22;20438;-82
2021/11/03 05:58:12;;;;;;;17.73;14.70;;;7.40;98.30;;;;;;5193883;22;20538;-83
2021/11/03 06:00:18;;;;;;;18.60;15.10;;;7.50;98.30;;;;;;5202180;22;20777;-82
2021/11/03 06:02:23;;;;;;;18.90;15.43;;;7.40;98.30;;;;;;5201600;22;20447;-82
2021/11/03 06:04:26;;;;;;;20.43;15.90;;;7.40;98.30;;;;;;5202459;22;20442;-84
2021/11/03 06:06:29;;;;;;;18.77;15.40;;;7.30;98.30;;;;;;5201389;22;20430;-83
2021/11/03 06:08:32;;;;;;;21.37;17.17;;;7.40;98.30;;;;;;5200931;22;20486;-82
2021/11/03 06:10:41;;;;;;;20.70;16.07;;;7.40;98.30;;;;;;5202411;22;20433;-82
2021/11/03 06:12:44;;;;;;;18.50;15.37;;;7.40;98.30;;;;;;5194418;22;20430;-82
2021/11/03 06:14:47;;;;;;;19.23;14.93;;;7.30;98.30;;;;;;5202140;22;20416;-83
2021/11/03 06:16:50;;;;;;;20.20;15.03;;;7.30;98.30;;;;;;5202702;22;20457;-82
2021/11/03 06:18:55;;;;;;;21.83;15.80;;;7.30;98.30;;;;;;5202810;22;20466;-82
2021/11/03 06:20:58;;;;;;;23.17;16.50;;;7.30;98.30;;;;;;5202610;22;20638;-84
2021/11/03 06:23:01;;;;;;;17.67;15.33;;;7.20;98.30;;;;;;5201850;22;20425;-82
2021/11/03 06:25:14;;;;;;;20.77;16.90;;;7.20;98.30;;;;;;5201364;22;20447;-83
2021/11/03 06:27:18;;;;;;;42.67;28.83;;;7.20;98.30;;;;;;5201264;22;20432;-82
2021/11/03 06:29:21;;;;;;;21.17;17.70;;;7.20;98.30;;;;;;5201242;22;20466;-82
2021/11/03 06:31:24;;;;;;;22.27;15.80;;;7.30;98.30;;;;;;5200907;22;20431;-82
2021/11/03 06:33:36;;;;;;;20.27;16.20;;;7.20;98.30;;;;;;5201762;22;20455;-82
2021/11/03 06:35:44;;;;;;;20.33;16.60;;;7.20;98.30;;;;;;5201255;22;20426;-82
2021/11/03 06:37:48;;;;;;;20.00;15.30;;;7.20;98.30;;;;;;5208789;22;20425;-82
2021/11/03 06:39:51;;;;;;;20.53;17.10;;;7.10;98.30;;;;;;5201761;22;20450;-81
2021/11/03 06:41:54;;;;;;;20.70;17.30;;;7.20;98.30;;;;;;5200886;22;20435;-82
2021/11/03 06:43:57;;;;;;;20.80;17.07;;;7.10;98.30;;;;;;5201013;22;20816;-81
2021/11/03 06:46:00;;;;;;;21.13;17.97;;;7.10;98.30;;;;;;5201325;22;20429;-82
2021/11/03 06:48:04;;;;;;;22.27;16.33;;;7.10;98.30;;;;;;5201119;22;20505;-82
2021/11/03 06:50:09;;;;;;;20.53;16.77;;;7.10;98.30;;;;;;5192367;22;20428;-82
2021/11/03 06:52:14;;;;;;;19.30;16.70;;;7.20;98.30;;;;;;5202666;22;20506;-81
2021/11/03 06:54:21;;;;;;;20.23;16.87;;;7.20;98.30;;;;;;5193186;22;20438;-82
2021/11/03 06:56:25;;;;;;;22.07;16.17;;;7.10;98.30;;;;;;5200199;22;20434;-83
2021/11/03 06:58:29;;;;;;;19.63;17.53;;;7.10;98.30;;;;;;5201263;22;20474;-81
2021/11/03 07:00:36;;;;;;;20.50;16.80;;;7.00;98.30;;;;;;5202439;22;20450;-81
2021/11/03 07:02:40;;;;;;;20.27;16.70;;;7.10;98.30;;;;;;5201862;22;20425;-82
2021/11/03 07:04:57;;;;;;;24.77;18.60;;;7.10;98.30;;;;;;5202539;22;20446;-81
2021/11/03 07:07:37;;;;;;;20.83;18.13;;;7.00;98.30;;;;;;5201813;22;20434;-82
2021/11/03 07:10:02;;;;;;;26.63;17.73;;;7.10;98.30;;;;;;5191885;22;20455;-83
2021/11/03 07:12:13;;;;;;;22.70;18.10;;;7.10;98.30;;;;;;5201848;22;20405;-83
2021/11/03 07:14:32;;;;;;;22.97;18.13;;;7.10;98.30;;;;;;5201377;22;20419;-81
2021/11/03 07:16:36;;;;;;;19.97;16.90;;;7.20;98.30;;;;;;5201242;22;20476;-82
2021/11/03 07:18:39;;;;;;;24.63;19.10;;;7.10;98.30;;;;;;5200697;22;20440;-83
2021/11/03 07:20:43;;;;;;;21.40;17.93;;;7.30;98.30;;;;;;5200405;22;20969;-81
2021/11/03 07:22:46;;;;;;;22.70;17.20;;;7.40;98.30;;;;;;5200266;22;20427;-81
2021/11/03 07:24:49;;;;;;;21.87;17.10;;;7.30;98.30;;;;;;5199206;22;20446;-84
2021/11/03 07:26:54;;;;;;;23.13;16.77;;;7.40;98.30;;;;;;5203584;22;20416;-81
2021/11/03 07:28:57;;;;;;;18.87;16.07;;;7.40;98.30;;;;;;5207918;22;20522;-81
2021/11/03 07:31:00;;;;;;;29.03;19.23;;;7.50;98.30;;;;;;5207921;22;20534;-82
2021/11/03 07:33:04;;;;;;;25.77;18.53;;;7.50;98.30;;;;;;5206617;22;20427;-81
2021/11/03 07:35:08;;;;;;;20.53;16.97;;;7.50;98.30;;;;;;5206806;22;20468;-80
2021/11/03 07:37:11;;;;;;;23.60;17.93;;;7.50;98.30;;;;;;5203499;22;20505;-79
2021/11/03 07:39:14;;;;;;;24.90;17.30;;;7.40;98.30;;;;;;5203857;22;20531;-80
2021/11/03 07:41:18;;;;;;;19.93;16.43;;;7.50;98.30;;;;;;5209195;22;20423;-80
2021/11/03 07:43:30;;;;;;;22.47;17.27;;;7.60;98.30;;;;;;5212033;22;20405;-80
2021/11/03 07:45:34;;;;;;;24.67;17.83;;;7.70;98.30;;;;;;5202490;22;20473;-80
2021/11/03 07:47:41;;;;;;;25.17;16.23;;;7.70;98.30;;;;;;5201569;22;20461;-79
2021/11/03 07:49:49;;;;;;;23.73;18.70;;;7.90;98.30;;;;;;5202124;22;20465;-80
2021/11/03 07:51:52;;;;;;;24.30;17.40;;;7.80;98.30;;;;;;5201253;22;20477;-82
2021/11/03 07:53:58;;;;;;;22.67;17.90;;;7.90;98.30;;;;;;5202129;22;20427;-80
2021/11/03 07:56:11;;;;;;;23.27;16.97;;;8.00;98.30;;;;;;5202354;22;20415;-79
2021/11/03 07:58:24;;;;;;;24.50;16.50;;;8.30;98.30;;;;;;5201780;22;20415;-80
2021/11/03 08:00:35;;;;;;;24.77;14.80;;;8.20;98.30;;;;;;5202296;22;20435;-80
2021/11/03 08:02:40;;;;;;;20.90;16.23;;;8.20;98.30;;;;;;5202206;22;20480;-80
2021/11/03 08:04:44;;;;;;;20.37;14.43;;;8.30;98.30;;;;;;5202248;22;20518;-81
2021/11/03 08:06:48;;;;;;;21.50;16.40;;;8.40;98.30;;;;;;5201756;22;20449;-83
2021/11/03 08:09:01;;;;;;;21.67;15.10;;;8.50;98.30;;;;;;5201774;22;20530;-80
2021/11/03 08:11:05;;;;;;;20.17;14.33;;;8.70;98.30;;;;;;5201785;22;20462;-82
2021/11/03 08:13:13;;;;;;;19.70;14.60;;;8.70;98.30;;;;;;5201379;22;20451;-80
2021/11/03 08:15:16;;;;;;;25.13;16.17;;;8.60;98.30;;;;;;5202074;22;20481;-81
2021/11/03 08:17:25;;;;;;;24.67;17.90;;;8.90;98.30;;;;;;5200797;22;20452;-81
2021/11/03 08:19:35;;;;;;;22.53;15.53;;;9.00;98.30;;;;;;5199687;22;20453;-82
2021/11/03 08:21:39;;;;;;;26.73;15.80;;;9.20;98.30;;;;;;5199899;22;20452;-81
2021/11/03 08:23:42;;;;;;;23.40;15.43;;;9.30;98.30;;;;;;5200798;22;20415;-81
2021/11/03 08:25:45;;;;;;;21.33;15.23;;;9.10;98.30;;;;;;5200471;22;20532;-81
2021/11/03 08:27:49;;;;;;;21.23;15.57;;;9.20;98.30;;;;;;5200319;22;20456;-81
2021/11/03 08:29:52;;;;;;;23.73;16.27;;;9.20;98.30;;;;;;5200297;22;20446;-81
2021/11/03 08:31:58;;;;;;;25.43;16.10;;;9.30;98.30;;;;;;5200782;22;20426;-81
2021/11/03 08:34:03;;;;;;;21.13;15.17;;;9.40;98.30;;;;;;5200951;22;20403;-82
2021/11/03 08:36:07;;;;;;;20.47;16.23;;;9.40;98.30;;;;;;5199873;22;20498;-81
2021/11/03 08:38:27;;;;;;;33.83;19.20;;;9.60;98.30;;;;;;5199421;22;20442;-81
2021/11/03 08:40:32;;;;;;;27.60;18.30;;;9.80;98.30;;;;;;5191775;22;20427;-81
2021/11/03 08:42:35;;;;;;;34.30;20.27;;;10.20;98.30;;;;;;5200476;22;20415;-80
2021/11/03 08:44:40;;;;;;;23.90;15.40;;;10.40;98.30;;;;;;5191505;22;20430;-80
2021/11/03 08:46:43;;;;;;;25.37;16.60;;;10.40;98.30;;;;;;5200378;22;20531;-81
2021/11/03 08:48:46;;;;;;;23.90;16.00;;;10.40;98.30;;;;;;5199734;22;20558;-81
2021/11/03 08:50:51;;;;;;;28.07;17.30;;;10.30;98.30;;;;;;5192196;22;20428;-82
2021/11/03 08:52:54;;;;;;;23.17;16.03;;;10.30;98.30;;;;;;5191276;22;20431;-81
2021/11/03 08:54:57;;;;;;;23.90;15.30;;;10.30;98.30;;;;;;5200124;22;20432;-84
2021/11/03 08:57:01;;;;;;;29.80;16.53;;;10.20;98.30;;;;;;5200456;22;20527;-81
2021/11/03 08:59:06;;;;;;;30.20;17.77;;;10.20;98.30;;;;;;5200750;22;20444;-83
2021/11/03 09:01:10;;;;;;;27.43;17.47;;;10.20;98.30;;;;;;5200118;22;20423;-81
2021/11/03 09:03:15;;;;;;;32.47;18.50;;;9.90;98.30;;;;;;5200934;22;20470;-81
2021/11/03 09:05:19;;;;;;;27.77;18.90;;;9.80;98.30;;;;;;5192171;22;20430;-81
2021/11/03 09:07:25;;;;;;;27.30;17.73;;;9.70;98.30;;;;;;5200162;22;20449;-83
2021/11/03 09:09:31;;;;;;;32.90;19.27;;;9.70;98.30;;;;;;5199451;22;20530;-81
2021/11/03 09:11:34;;;;;;;30.13;19.93;;;9.60;98.30;;;;;;5199762;22;20431;-81
2021/11/03 09:13:38;;;;;;;33.50;21.17;;;9.70;98.30;;;;;;5199940;22;20425;-81
2021/11/03 09:15:41;;;;;;;34.53;22.20;;;9.80;98.30;;;;;;5201305;22;20437;-81
2021/11/03 09:17:44;;;;;;;33.67;20.43;;;9.80;98.30;;;;;;5201736;22;20485;-82
2021/11/03 09:19:47;;;;;;;33.80;21.10;;;9.60;98.30;;;;;;5201596;22;20442;-81
2021/11/03 09:21:50;;;;;;;31.50;21.60;;;9.50;98.30;;;;;;5201565;22;20426;-82
2021/11/03 09:23:54;;;;;;;34.20;24.47;;;9.50;98.30;;;;;;5201774;22;20506;-81
2021/11/03 09:25:57;;;;;;;36.53;22.17;;;9.40;98.30;;;;;;5203080;22;20454;-82
2021/11/03 09:28:08;;;;;;;33.23;21.30;;;9.50;98.30;;;;;;5201490;22;20435;-82
2021/11/03 09:30:19;;;;;;;32.87;22.30;;;9.50;98.30;;;;;;5200646;22;20487;-81
2021/11/03 09:32:29;;;;;;;35.03;22.50;;;9.40;98.30;;;;;;5202412;22;20516;-82
2021/11/03 09:34:34;;;;;;;35.83;21.50;;;9.30;98.30;;;;;;5192741;22;20483;-83
2021/11/03 09:36:51;;;;;;;37.77;25.23;;;9.30;98.30;;;;;;5202252;22;20406;-81
2021/11/03 09:38:58;;;;;;;33.10;21.57;;;9.20;98.30;;;;;;5201537;22;21203;-81
2021/11/03 09:41:11;;;;;;;35.27;21.70;;;9.10;98.30;;;;;;5201574;22;20440;-81
2021/11/03 09:43:30;;;;;;;40.60;24.47;;;9.10;98.30;;;;;;5201684;22;20494;-81
2021/11/03 09:45:38;;;;;;;39.20;22.43;;;9.10;98.30;;;;;;5202440;22;20425;-81
2021/11/03 09:47:57;;;;;;;39.10;21.03;;;9.00;98.30;;;;;;5201236;22;20446;-81
2021/11/03 09:50:22;;;;;;;43.40;21.57;;;9.00;98.30;;;;;;5200501;22;20445;-81
2021/11/03 09:52:30;;;;;;;45.83;21.77;;;9.00;98.30;;;;;;5201716;22;20870;-81
2021/11/03 09:54:37;;;;;;;34.67;19.10;;;8.80;98.30;;;;;;5201179;22;20934;-81
2021/11/03 09:56:42;;;;;;;36.17;19.60;;;8.60;98.30;;;;;;5202046;22;20979;-81
2021/11/03 09:59:00;;;;;;;39.97;23.00;;;8.60;98.30;;;;;;5201815;22;20436;-81
2021/11/03 10:01:13;;;;;;;46.17;26.43;;;8.70;98.30;;;;;;5193514;22;20500;-82
2021/11/03 10:03:30;;;;;;;36.20;22.20;;;8.90;98.30;;;;;;5193689;22;20431;-81
2021/11/03 10:05:46;;;;;;;34.63;21.10;;;8.90;98.30;;;;;;5202228;22;20427;-81
2021/11/03 10:07:52;;;;;;;41.20;22.60;;;8.90;98.30;;;;;;5201211;22;20486;-80
2021/11/03 10:09:57;;;;;;;38.67;20.77;;;9.00;98.30;;;;;;5202625;22;20952;-81
2021/11/03 10:12:02;;;;;;;36.00;20.30;;;9.00;98.30;;;;;;5201467;22;20416;-80
2021/11/03 10:14:06;;;;;;;35.70;21.93;;;9.00;98.30;;;;;;5201554;22;20439;-80
2021/11/03 10:16:26;;;;;;;35.90;23.50;;;9.00;98.30;;;;;;5201370;22;20420;-81
2021/11/03 10:18:35;;;;;;;35.27;21.87;;;9.10;98.30;;;;;;5201253;22;20797;-81
2021/11/03 10:21:08;;;;;;;35.70;20.83;;;9.00;98.30;;;;;;5201213;22;20764;-82
2021/11/03 10:23:24;;;;;;;41.23;23.90;;;9.00;98.30;;;;;;5200870;22;20548;-80
2021/11/03 10:25:30;;;;;;;39.27;23.57;;;9.00;98.30;;;;;;5192610;22;20420;-80
2021/11/03 10:27:43;;;;;;;39.33;24.20;;;9.00;98.30;;;;;;5201219;22;20452;-80
2021/11/03 10:29:49;;;;;;;36.60;22.60;;;9.00;98.30;;;;;;5200847;22;20445;-80
2021/11/03 10:31:56;;;;;;;38.30;22.37;;;9.10;98.30;;;;;;5201023;22;20432;-81
2021/11/03 10:34:03;;;;;;;33.47;19.23;;;9.20;98.30;;;;;;5201169;22;20457;-80
2021/11/03 10:36:16;;;;;;;33.43;20.53;;;9.10;98.30;;;;;;5201319;22;20418;-80
2021/11/03 10:38:21;;;;;;;29.13;17.37;;;9.20;98.30;;;;;;5200901;22;20423;-80
2021/11/03 10:40:30;;;;;;;29.47;17.70;;;9.10;98.30;;;;;;5201144;22;20451;-81
2021/11/03 10:42:36;;;;;;;34.70;20.67;;;9.10;98.30;;;;;;5201163;22;20413;-80
2021/11/03 10:44:39;;;;;;;31.50;19.10;;;9.10;98.30;;;;;;5200741;22;20424;-80
2021/11/03 10:46:48;;;;;;;28.60;19.10;;;9.30;98.30;;;;;;5192810;22;20430;-80
2021/11/03 10:49:08;;;;;;;28.23;17.93;;;9.40;98.30;;;;;;5201743;22;20592;-80